Time;durP1;ratioP1;P1;durP2;ratioP2;P2;SDS_P1;SDS_P2;PMS_P1;PMS_P2;Temp;Humidity;BMP_temperature;BMP_pressure;BME280_temperature;BME280_humidity;BME280_pressure;Samples;Min_cycle;Max_cycle;Signal;HPM_P1;HPM_P2
2024/01/06 00:02:16;;;;;;;1.88;1.77;;;16.00;62.30;;;;;;5112425;28;20248;-64
2024/01/06 00:04:42;;;;;;;1.38;1.30;;;16.00;62.30;;;;;;5112331;28;20173;-63
2024/01/06 00:07:07;;;;;;;1.73;1.27;;;16.00;62.30;;;;;;5112549;28;20181;-64
2024/01/06 00:09:33;;;;;;;1.60;1.50;;;15.90;62.30;;;;;;5112068;28;20215;-64
2024/01/06 00:11:58;;;;;;;1.63;1.50;;;15.90;62.30;;;;;;5111807;28;20176;-64
2024/01/06 00:14:24;;;;;;;1.65;1.50;;;15.90;62.30;;;;;;5112238;28;20573;-64
2024/01/06 00:16:49;;;;;;;1.60;1.50;;;15.90;63.30;;;;;;5112456;28;20180;-64
2024/01/06 00:19:17;;;;;;;1.45;1.35;;;15.90;62.30;;;;;;5111511;28;20177;-64
2024/01/06 00:21:43;;;;;;;1.75;1.65;;;15.90;62.40;;;;;;5112370;28;20226;-64
2024/01/06 00:24:08;;;;;;;1.10;1.10;;;15.90;62.40;;;;;;5112680;28;20177;-64
2024/01/06 00:26:34;;;;;;;1.70;1.60;;;15.90;62.40;;;;;;5111610;28;20192;-64
2024/01/06 00:28:59;;;;;;;1.50;1.40;;;15.80;62.40;;;;;;5112409;28;20209;-64
2024/01/06 00:31:25;;;;;;;1.80;1.67;;;15.90;62.40;;;;;;5112155;28;20169;-64
2024/01/06 00:33:50;;;;;;;1.50;1.40;;;15.80;62.40;;;;;;5111708;28;20623;-64
2024/01/06 00:36:16;;;;;;;1.65;1.55;;;15.80;62.40;;;;;;5111879;28;20265;-65
2024/01/06 00:38:41;;;;;;;1.50;1.38;;;15.80;62.40;;;;;;5112465;28;20169;-65
2024/01/06 00:41:07;;;;;;;1.25;1.20;;;15.80;62.40;;;;;;5111761;28;20176;-65
2024/01/06 00:43:32;;;;;;;1.58;1.48;;;15.80;62.50;;;;;;5112158;28;20579;-65
2024/01/06 00:45:58;;;;;;;1.60;1.50;;;15.80;62.60;;;;;;5112341;28;20179;-64
2024/01/06 00:48:23;;;;;;;1.52;1.42;;;15.80;62.50;;;;;;5111246;28;20168;-64
2024/01/06 00:50:49;;;;;;;1.60;1.50;;;15.70;62.50;;;;;;5112185;28;20195;-64
2024/01/06 00:53:14;;;;;;;1.50;1.40;;;15.70;62.40;;;;;;5111820;28;20193;-64
2024/01/06 00:55:40;;;;;;;2.10;1.40;;;15.70;62.40;;;;;;5111369;28;20668;-64
2024/01/06 00:58:05;;;;;;;1.60;1.50;;;15.70;62.40;;;;;;5112180;28;20165;-64
2024/01/06 01:00:31;;;;;;;1.60;1.50;;;15.70;62.50;;;;;;5111792;28;20176;-64
2024/01/06 01:02:56;;;;;;;1.40;1.30;;;15.70;62.50;;;;;;5111409;28;20177;-63
2024/01/06 01:05:22;;;;;;;1.50;1.40;;;15.70;62.50;;;;;;5111740;28;20181;-64
2024/01/06 01:07:47;;;;;;;1.52;1.30;;;15.70;62.50;;;;;;5111457;28;20264;-65
2024/01/06 01:10:13;;;;;;;1.45;1.35;;;15.70;62.50;;;;;;5112155;28;20288;-64
2024/01/06 01:12:39;;;;;;;1.60;1.50;;;15.70;62.60;;;;;;5112106;28;20570;-64
2024/01/06 01:15:05;;;;;;;1.08;1.08;;;15.70;62.50;;;;;;5111324;28;20715;-64
2024/01/06 01:17:30;;;;;;;1.10;1.10;;;15.70;62.60;;;;;;5110852;28;20640;-64
2024/01/06 01:19:56;;;;;;;1.30;1.30;;;15.70;62.60;;;;;;5111943;28;20173;-63
2024/01/06 01:22:21;;;;;;;1.45;1.35;;;15.70;62.60;;;;;;5113295;28;20185;-64
2024/01/06 01:24:47;;;;;;;1.60;1.50;;;15.70;62.60;;;;;;5115818;28;20177;-64
2024/01/06 01:27:12;;;;;;;2.20;1.55;;;15.70;62.60;;;;;;5115678;28;20180;-64
2024/01/06 01:29:38;;;;;;;1.58;1.40;;;15.70;62.60;;;;;;5114745;28;20208;-64
2024/01/06 01:32:04;;;;;;;1.60;1.50;;;15.60;62.50;;;;;;5115549;28;20170;-64
2024/01/06 01:34:29;;;;;;;1.42;1.33;;;15.60;62.50;;;;;;5114986;28;20761;-64
2024/01/06 01:36:55;;;;;;;1.45;1.35;;;15.60;62.50;;;;;;5114610;28;20256;-65
2024/01/06 01:39:20;;;;;;;1.40;1.30;;;15.60;62.50;;;;;;5115213;28;20264;-64
2024/01/06 01:41:46;;;;;;;1.30;1.20;;;15.60;62.50;;;;;;5115450;28;20169;-65
2024/01/06 01:44:12;;;;;;;1.98;1.25;;;15.60;62.50;;;;;;5114667;28;20173;-64
2024/01/06 01:46:37;;;;;;;1.63;1.52;;;15.60;62.50;;;;;;5114894;28;20322;-64
2024/01/06 01:49:03;;;;;;;1.42;1.33;;;15.60;62.60;;;;;;5096862;28;20208;-65
2024/01/06 01:51:30;;;;;;;1.58;1.40;;;15.60;62.50;;;;;;5095920;28;20268;-64
2024/01/06 01:53:59;;;;;;;1.63;1.52;;;15.60;62.60;;;;;;5115140;28;20173;-64
2024/01/06 01:56:25;;;;;;;1.67;1.40;;;15.60;62.60;;;;;;5097006;28;20278;-64
2024/01/06 01:58:50;;;;;;;1.60;1.50;;;15.60;62.50;;;;;;5096178;28;20172;-64
2024/01/06 02:01:16;;;;;;;1.42;1.33;;;15.60;62.50;;;;;;5079647;28;20173;-64
2024/01/06 02:03:43;;;;;;;1.40;1.30;;;15.50;62.50;;;;;;5114878;28;20191;-63
2024/01/06 02:06:09;;;;;;;1.70;1.60;;;15.50;62.60;;;;;;5113984;28;20573;-64
2024/01/06 02:08:34;;;;;;;1.40;1.30;;;15.50;62.50;;;;;;5114643;28;20234;-64
2024/01/06 02:11:00;;;;;;;1.30;1.25;;;15.60;62.50;;;;;;5114875;28;20527;-65
2024/01/06 02:13:35;;;;;;;1.40;1.30;;;15.50;62.50;;;;;;5113725;28;20192;-64
2024/01/06 02:16:02;;;;;;;1.55;1.45;;;15.50;62.50;;;;;;5114634;28;20654;-65
2024/01/06 02:18:28;;;;;;;1.60;1.50;;;15.50;62.50;;;;;;5113512;28;20169;-64
2024/01/06 02:20:53;;;;;;;1.70;1.60;;;15.50;62.50;;;;;;5114955;28;20204;-65
2024/01/06 02:23:19;;;;;;;1.70;1.60;;;15.50;62.50;;;;;;5079458;28;20238;-63
2024/01/06 02:25:44;;;;;;;1.60;1.50;;;15.50;62.90;;;;;;5106440;28;20200;-64
2024/01/06 02:28:10;;;;;;;2.10;1.90;;;15.50;62.50;;;;;;5094173;28;20166;-63
2024/01/06 02:30:35;;;;;;;1.80;1.70;;;15.50;62.40;;;;;;5093647;28;20583;-64
2024/01/06 02:33:01;;;;;;;2.15;1.60;;;15.50;62.40;;;;;;5092639;28;20536;-64
2024/01/06 02:35:26;;;;;;;1.95;1.85;;;15.50;62.40;;;;;;5093523;28;20176;-65
2024/01/06 02:37:52;;;;;;;1.80;1.70;;;15.50;62.40;;;;;;5093959;28;20257;-65
2024/01/06 02:40:17;;;;;;;1.70;1.60;;;15.50;62.40;;;;;;5092930;28;20172;-64
2024/01/06 02:42:43;;;;;;;1.80;1.70;;;15.50;62.40;;;;;;5093829;28;20193;-65
2024/01/06 02:45:11;;;;;;;1.67;1.58;;;15.50;62.50;;;;;;5093698;28;20620;-65
2024/01/06 02:47:37;;;;;;;2.03;1.83;;;15.50;62.50;;;;;;5092599;28;20205;-64
2024/01/06 02:50:03;;;;;;;2.00;1.90;;;15.40;62.50;;;;;;5093714;28;20233;-64
2024/01/06 02:52:29;;;;;;;1.95;1.85;;;15.40;62.40;;;;;;5093424;28;20178;-64
2024/01/06 02:54:57;;;;;;;2.15;1.95;;;15.50;62.50;;;;;;5092940;28;20223;-64
2024/01/06 02:57:23;;;;;;;1.83;1.73;;;15.40;62.50;;;;;;5112058;28;20249;-64
2024/01/06 02:59:48;;;;;;;2.53;1.88;;;15.40;62.40;;;;;;5113827;28;20208;-64
2024/01/06 03:02:14;;;;;;;2.13;1.85;;;15.40;62.50;;;;;;5112691;28;20173;-64
2024/01/06 03:04:39;;;;;;;1.70;1.60;;;15.40;62.50;;;;;;5113740;28;20165;-64
2024/01/06 03:07:05;;;;;;;2.35;1.95;;;15.40;62.40;;;;;;5113751;28;20204;-64
2024/01/06 03:09:30;;;;;;;2.20;2.00;;;15.40;62.40;;;;;;5112638;28;20238;-63
2024/01/06 03:11:56;;;;;;;1.60;1.50;;;15.40;62.50;;;;;;5113525;28;20695;-64
2024/01/06 03:14:21;;;;;;;2.05;1.90;;;15.40;62.40;;;;;;5112630;28;20252;-63
2024/01/06 03:16:47;;;;;;;1.95;1.85;;;15.40;62.50;;;;;;5113227;28;20245;-63
2024/01/06 03:19:12;;;;;;;1.83;1.67;;;15.40;62.50;;;;;;5113466;28;20177;-63
2024/01/06 03:21:38;;;;;;;1.80;1.70;;;15.40;62.50;;;;;;5112560;28;20506;-63
2024/01/06 03:24:04;;;;;;;1.83;1.70;;;15.40;62.60;;;;;;5113476;28;20177;-64
2024/01/06 03:26:30;;;;;;;2.30;2.10;;;15.30;62.40;;;;;;5113020;28;20198;-63
2024/01/06 03:28:56;;;;;;;1.55;1.45;;;15.30;62.50;;;;;;5112470;28;20208;-64
2024/01/06 03:31:22;;;;;;;1.95;1.80;;;15.40;62.50;;;;;;5112834;28;20218;-64
2024/01/06 03:33:47;;;;;;;1.52;1.42;;;15.40;62.60;;;;;;5113091;28;20255;-64
2024/01/06 03:36:15;;;;;;;1.77;1.67;;;15.40;62.60;;;;;;5112496;28;20173;-65
2024/01/06 03:38:41;;;;;;;1.85;1.75;;;15.40;62.50;;;;;;5113093;28;20734;-64
2024/01/06 03:41:06;;;;;;;1.63;1.52;;;15.40;62.50;;;;;;5113099;28;20185;-65
2024/01/06 03:43:32;;;;;;;1.70;1.60;;;15.30;62.60;;;;;;5112003;28;20177;-65
2024/01/06 03:45:59;;;;;;;1.60;1.50;;;15.30;62.50;;;;;;5112031;28;20168;-64
2024/01/06 03:48:25;;;;;;;1.88;1.73;;;15.30;62.40;;;;;;5112710;28;20230;-65
2024/01/06 03:50:51;;;;;;;1.58;1.48;;;15.30;62.40;;;;;;5112325;28;20174;-64
2024/01/06 03:53:16;;;;;;;1.42;1.33;;;15.30;62.50;;;;;;5112712;28;20169;-64
2024/01/06 03:55:42;;;;;;;2.72;2.00;;;15.30;62.60;;;;;;5112780;28;20237;-65
2024/01/06 03:58:07;;;;;;;1.67;1.58;;;15.30;62.50;;;;;;5112162;28;20177;-64
2024/01/06 04:00:33;;;;;;;1.40;1.30;;;15.30;62.50;;;;;;5112363;28;20582;-64
2024/01/06 04:02:58;;;;;;;1.35;1.25;;;15.30;62.60;;;;;;5112629;28;20611;-64
2024/01/06 04:05:24;;;;;;;1.42;1.33;;;15.30;62.50;;;;;;5111709;28;20173;-64
2024/01/06 04:07:49;;;;;;;1.55;1.45;;;15.20;62.40;;;;;;5112607;28;20173;-64
2024/01/06 04:10:15;;;;;;;1.50;1.40;;;15.30;62.60;;;;;;5112270;28;20208;-64
2024/01/06 04:12:40;;;;;;;1.67;1.58;;;15.30;62.50;;;;;;5111949;28;20165;-64
2024/01/06 04:15:06;;;;;;;2.20;1.42;;;15.30;62.50;;;;;;5112468;28;20196;-64
2024/01/06 04:17:32;;;;;;;1.73;1.63;;;15.30;62.50;;;;;;5112258;28;20169;-64
2024/01/06 04:19:57;;;;;;;1.55;1.45;;;15.20;62.40;;;;;;5112088;28;20165;-67
2024/01/06 04:22:23;;;;;;;1.38;1.27;;;15.20;62.40;;;;;;5112408;28;20165;-64
2024/01/06 04:24:48;;;;;;;1.58;1.48;;;15.20;62.50;;;;;;5111852;28;20173;-64
2024/01/06 04:27:14;;;;;;;1.70;1.60;;;15.20;62.40;;;;;;5112230;28;20169;-64
2024/01/06 04:29:39;;;;;;;1.38;1.27;;;15.20;62.40;;;;;;5094106;28;20204;-64
2024/01/06 04:32:06;;;;;;;1.95;1.85;;;15.20;62.50;;;;;;5111924;28;20176;-64
2024/01/06 04:34:31;;;;;;;2.22;2.03;;;15.20;62.40;;;;;;5112237;28;20181;-64
2024/01/06 04:36:57;;;;;;;1.70;1.60;;;15.20;62.40;;;;;;5112546;28;20218;-64
2024/01/06 04:39:23;;;;;;;2.17;1.77;;;15.20;62.40;;;;;;5111359;28;20260;-64
2024/01/06 04:41:49;;;;;;;2.60;1.80;;;15.20;62.30;;;;;;5112345;28;20184;-65
2024/01/06 04:44:14;;;;;;;1.80;1.70;;;15.20;62.40;;;;;;5111970;28;20173;-64
2024/01/06 04:46:40;;;;;;;2.55;1.60;;;15.20;62.40;;;;;;5111529;28;20169;-64
2024/01/06 04:49:05;;;;;;;1.70;1.60;;;15.20;62.40;;;;;;5112177;28;20335;-64
2024/01/06 04:51:31;;;;;;;1.63;1.52;;;15.20;62.30;;;;;;5112101;28;20225;-64
2024/01/06 04:53:56;;;;;;;1.50;1.40;;;15.20;62.30;;;;;;5111558;28;20256;-65
2024/01/06 04:56:22;;;;;;;1.70;1.58;;;15.20;62.40;;;;;;5112684;28;20688;-64
2024/01/06 04:58:47;;;;;;;1.60;1.50;;;15.20;62.40;;;;;;5116044;28;20173;-64
2024/01/06 05:01:13;;;;;;;1.98;1.58;;;15.20;62.30;;;;;;5115324;28;20209;-64
2024/01/06 05:03:39;;;;;;;1.42;1.33;;;15.20;62.40;;;;;;5116227;28;20184;-64
2024/01/06 05:06:04;;;;;;;1.40;1.30;;;15.10;62.30;;;;;;5116188;28;20185;-64
2024/01/06 05:08:32;;;;;;;1.50;1.40;;;15.10;62.40;;;;;;5114874;28;20169;-63
2024/01/06 05:10:58;;;;;;;1.50;1.40;;;15.20;62.40;;;;;;5115852;28;20647;-64
2024/01/06 05:13:24;;;;;;;1.45;1.35;;;15.10;62.40;;;;;;5097273;28;20173;-64
2024/01/06 05:15:49;;;;;;;1.92;1.70;;;15.10;62.40;;;;;;5115392;28;20169;-64
2024/01/06 05:18:15;;;;;;;1.85;1.75;;;15.10;62.30;;;;;;5115481;28;20624;-63
2024/01/06 05:20:43;;;;;;;1.90;1.80;;;15.10;62.30;;;;;;5115894;28;20177;-63
2024/01/06 05:23:08;;;;;;;1.95;1.70;;;15.10;62.30;;;;;;5115173;28;20177;-63
2024/01/06 05:25:34;;;;;;;1.95;1.85;;;15.10;62.30;;;;;;5115379;28;20177;-63
2024/01/06 05:27:59;;;;;;;1.98;1.85;;;15.10;62.40;;;;;;5115111;28;20180;-64
2024/01/06 05:30:25;;;;;;;1.42;1.33;;;15.10;62.30;;;;;;5115215;28;20212;-64
2024/01/06 05:32:51;;;;;;;1.60;1.50;;;15.10;62.30;;;;;;5115707;28;20172;-64
2024/01/06 05:35:16;;;;;;;1.58;1.48;;;15.10;62.30;;;;;;5114891;28;20170;-65
2024/01/06 05:37:42;;;;;;;2.05;1.95;;;15.10;62.30;;;;;;5115475;28;20292;-64
2024/01/06 05:40:08;;;;;;;1.90;1.70;;;15.10;62.30;;;;;;5115430;28;20613;-64
2024/01/06 05:42:34;;;;;;;1.83;1.55;;;15.00;62.20;;;;;;5114349;28;20724;-65
2024/01/06 05:44:59;;;;;;;1.70;1.60;;;15.00;62.20;;;;;;5115146;28;20268;-64
2024/01/06 05:47:24;;;;;;;1.63;1.52;;;15.00;62.20;;;;;;5115172;28;20272;-65
2024/01/06 05:49:50;;;;;;;1.92;1.83;;;15.10;62.40;;;;;;5113209;28;20223;-64
2024/01/06 05:52:16;;;;;;;2.13;1.92;;;15.10;62.20;;;;;;5114940;28;20175;-63
2024/01/06 05:54:44;;;;;;;2.30;2.10;;;15.10;62.20;;;;;;5115121;28;20256;-65
2024/01/06 05:57:10;;;;;;;1.60;1.50;;;15.10;62.20;;;;;;5114159;28;20278;-64
2024/01/06 05:59:35;;;;;;;1.88;1.77;;;15.10;62.10;;;;;;5114862;28;20256;-64
2024/01/06 06:02:01;;;;;;;1.70;1.60;;;15.20;62.20;;;;;;5115150;28;20180;-64
2024/01/06 06:04:26;;;;;;;1.58;1.48;;;15.20;62.10;;;;;;5114023;28;20169;-63
2024/01/06 06:06:52;;;;;;;1.50;1.40;;;15.30;61.90;;;;;;5114983;28;20169;-64
2024/01/06 06:09:17;;;;;;;1.27;1.17;;;15.30;61.80;;;;;;5113489;28;20213;-63
2024/01/06 06:11:43;;;;;;;1.55;1.45;;;15.30;61.80;;;;;;5114059;28;20166;-64
2024/01/06 06:14:09;;;;;;;1.50;1.40;;;15.30;61.80;;;;;;5115043;28;20265;-63
2024/01/06 06:16:34;;;;;;;1.63;1.52;;;15.40;61.80;;;;;;5114727;28;20246;-66
2024/01/06 06:19:00;;;;;;;1.40;1.30;;;15.40;61.70;;;;;;5113981;28;20180;-64
2024/01/06 06:21:25;;;;;;;1.10;1.00;;;15.50;61.80;;;;;;5114244;28;20165;-63
2024/01/06 06:23:51;;;;;;;1.40;1.30;;;15.50;61.70;;;;;;5114608;28;20255;-64
2024/01/06 06:26:16;;;;;;;1.60;1.50;;;15.50;61.70;;;;;;5113537;28;20592;-64
2024/01/06 06:28:42;;;;;;;1.40;1.30;;;15.50;61.60;;;;;;5114618;28;20173;-63
2024/01/06 06:31:07;;;;;;;1.42;1.33;;;15.60;61.60;;;;;;5114576;28;20181;-64
2024/01/06 06:33:33;;;;;;;1.77;1.55;;;15.60;61.40;;;;;;5113551;28;20177;-63
2024/01/06 06:35:59;;;;;;;2.08;1.65;;;15.70;61.50;;;;;;5114377;28;20619;-64
2024/01/06 06:38:25;;;;;;;1.65;1.55;;;15.70;61.40;;;;;;5113285;28;20177;-63
2024/01/06 06:40:51;;;;;;;1.73;1.63;;;15.70;61.30;;;;;;5114284;28;20177;-64
2024/01/06 06:43:16;;;;;;;1.30;1.20;;;15.70;61.20;;;;;;5114048;28;20173;-64
2024/01/06 06:45:42;;;;;;;1.50;1.40;;;15.80;61.10;;;;;;5113681;28;21047;-64
2024/01/06 06:48:07;;;;;;;1.52;1.42;;;15.90;61.10;;;;;;5114249;28;20563;-64
2024/01/06 06:50:33;;;;;;;1.40;1.30;;;15.90;61.00;;;;;;5113683;28;20220;-63
2024/01/06 06:53:00;;;;;;;2.60;1.30;;;16.00;60.90;;;;;;5113345;28;20176;-64
2024/01/06 06:55:27;;;;;;;1.20;1.13;;;16.20;60.80;;;;;;5113288;28;20177;-64
2024/01/06 06:57:52;;;;;;;1.42;1.27;;;16.30;60.50;;;;;;5114135;28;20177;-63
2024/01/06 07:00:18;;;;;;;1.30;1.20;;;16.40;60.10;;;;;;5112746;28;20176;-63
2024/01/06 07:02:44;;;;;;;1.20;1.20;;;16.60;59.80;;;;;;5113710;28;20210;-63
2024/01/06 07:05:09;;;;;;;1.58;1.13;;;16.70;59.60;;;;;;5113702;28;20185;-64
2024/01/06 07:07:35;;;;;;;1.58;1.30;;;16.80;59.50;;;;;;5112736;28;20643;-64
2024/01/06 07:10:05;;;;;;;2.38;1.23;;;16.80;59.40;;;;;;5113530;28;20205;-64
2024/01/06 07:12:33;;;;;;;1.30;1.17;;;16.90;59.30;;;;;;5113392;28;20226;-63
2024/01/06 07:14:59;;;;;;;1.25;1.10;;;16.90;59.20;;;;;;5112932;28;20185;-63
2024/01/06 07:17:25;;;;;;;1.95;1.20;;;16.90;59.10;;;;;;5113120;28;20176;-63
2024/01/06 07:19:50;;;;;;;1.17;1.08;;;17.00;59.10;;;;;;5113397;28;20177;-64
2024/01/06 07:22:19;;;;;;;1.73;1.40;;;16.90;59.10;;;;;;5112467;28;20578;-63
2024/01/06 07:24:44;;;;;;;1.23;1.13;;;17.00;59.10;;;;;;5113228;28;20604;-64
2024/01/06 07:27:10;;;;;;;1.30;1.20;;;17.00;59.10;;;;;;5113501;28;20197;-64
2024/01/06 07:29:35;;;;;;;1.15;1.15;;;17.00;59.00;;;;;;5112281;28;20216;-64
2024/01/06 07:32:01;;;;;;;1.15;1.10;;;16.90;59.10;;;;;;5113278;28;20632;-64
2024/01/06 07:34:26;;;;;;;1.55;1.30;;;16.90;59.10;;;;;;5112949;28;20508;-64
2024/01/06 07:36:52;;;;;;;1.25;1.15;;;17.00;59.10;;;;;;5112444;28;20165;-64
2024/01/06 07:39:18;;;;;;;1.20;1.10;;;17.00;59.10;;;;;;5112697;28;20188;-64
2024/01/06 07:41:44;;;;;;;0.98;0.90;;;17.00;59.20;;;;;;5112520;28;20181;-64
2024/01/06 07:44:10;;;;;;;0.98;0.98;;;17.00;59.10;;;;;;5113170;28;20178;-65
2024/01/06 07:46:36;;;;;;;1.40;1.20;;;17.00;59.70;;;;;;5112704;28;20284;-64
2024/01/06 07:49:02;;;;;;;1.17;1.08;;;17.00;59.10;;;;;;5112139;28;20663;-64
2024/01/06 07:51:28;;;;;;;4.47;1.52;;;17.00;59.00;;;;;;5112470;28;20181;-64
2024/01/06 07:53:53;;;;;;;0.90;0.90;;;17.10;59.00;;;;;;5112743;28;20632;-64
2024/01/06 07:56:19;;;;;;;1.20;1.10;;;17.10;59.00;;;;;;5111531;28;20221;-64
2024/01/06 07:58:44;;;;;;;1.40;1.30;;;17.10;59.00;;;;;;5112966;28;20177;-65
2024/01/06 08:01:10;;;;;;;1.20;1.10;;;17.10;59.00;;;;;;5112936;28;20200;-64
2024/01/06 08:03:35;;;;;;;1.23;1.10;;;17.10;59.60;;;;;;5111779;28;20230;-65
2024/01/06 08:06:01;;;;;;;1.10;1.00;;;17.10;59.00;;;;;;5112720;28;20192;-65
2024/01/06 08:08:27;;;;;;;1.25;1.15;;;17.10;58.90;;;;;;5094233;28;20173;-65
2024/01/06 08:10:52;;;;;;;0.90;0.90;;;17.00;58.90;;;;;;5111740;28;20216;-64
2024/01/06 08:13:18;;;;;;;1.33;1.23;;;17.00;59.00;;;;;;5112422;28;20177;-63
2024/01/06 08:15:43;;;;;;;1.35;1.10;;;16.90;59.10;;;;;;5112826;28;20229;-68
2024/01/06 08:18:09;;;;;;;1.33;1.23;;;16.90;59.20;;;;;;5111965;28;20179;-64
2024/01/06 08:20:34;;;;;;;1.30;1.20;;;16.90;59.20;;;;;;5112303;28;20173;-65
2024/01/06 08:23:00;;;;;;;2.08;1.40;;;17.00;59.20;;;;;;5112543;28;20350;-65
2024/01/06 08:25:25;;;;;;;1.52;1.20;;;17.00;59.10;;;;;;5111662;28;20273;-64
2024/01/06 08:27:51;;;;;;;1.02;1.02;;;17.00;59.00;;;;;;5112519;28;20255;-65
2024/01/06 08:30:16;;;;;;;1.30;1.20;;;17.00;59.00;;;;;;5111990;28;20357;-64
2024/01/06 08:32:42;;;;;;;1.27;1.17;;;17.10;59.70;;;;;;5115016;28;20595;-65
2024/01/06 08:35:08;;;;;;;2.60;1.20;;;17.00;58.90;;;;;;5116436;28;20177;-64
2024/01/06 08:37:33;;;;;;;1.63;1.50;;;17.10;59.00;;;;;;5116224;28;20472;-64
2024/01/06 08:39:59;;;;;;;1.98;1.30;;;17.10;59.00;;;;;;5115643;28;20525;-65
2024/01/06 08:42:25;;;;;;;1.58;1.38;;;17.10;59.00;;;;;;5116068;28;20631;-64
2024/01/06 08:44:51;;;;;;;2.10;1.50;;;17.10;59.10;;;;;;5116479;28;20172;-64
2024/01/06 08:47:17;;;;;;;1.95;1.60;;;17.10;59.00;;;;;;5115472;28;20231;-64
2024/01/06 08:49:42;;;;;;;2.25;1.58;;;17.20;59.00;;;;;;5116005;28;20261;-65
2024/01/06 08:52:08;;;;;;;1.50;1.40;;;17.20;58.80;;;;;;5115238;28;20177;-67
2024/01/06 08:54:34;;;;;;;2.20;1.20;;;17.20;58.90;;;;;;5116030;28;20189;-63
2024/01/06 08:57:00;;;;;;;1.30;1.20;;;17.20;58.90;;;;;;5116123;28;20240;-64
2024/01/06 08:59:25;;;;;;;4.22;1.40;;;17.20;59.00;;;;;;5115305;28;20176;-65
2024/01/06 09:01:51;;;;;;;2.63;1.27;;;17.20;59.00;;;;;;5116162;28;20169;-64
2024/01/06 09:04:17;;;;;;;1.75;1.42;;;17.30;59.00;;;;;;5115668;28;20180;-64
2024/01/06 09:06:43;;;;;;;2.25;1.50;;;17.30;59.00;;;;;;5115253;28;20508;-65
2024/01/06 09:09:09;;;;;;;3.40;1.52;;;17.30;58.90;;;;;;5116026;28;20206;-64
2024/01/06 09:11:35;;;;;;;2.28;1.70;;;17.30;58.70;;;;;;5115598;28;20250;-64
2024/01/06 09:14:01;;;;;;;3.83;1.75;;;17.30;58.80;;;;;;5115213;28;20184;-64
2024/01/06 09:16:26;;;;;;;3.15;1.98;;;17.30;58.60;;;;;;5115581;28;20180;-63
2024/01/06 09:18:52;;;;;;;2.58;1.90;;;17.30;58.60;;;;;;5115658;28;20171;-64
2024/01/06 09:21:17;;;;;;;2.30;1.92;;;17.20;58.50;;;;;;5114583;28;20177;-63
2024/01/06 09:23:43;;;;;;;3.05;1.95;;;17.20;58.40;;;;;;5115890;28;20173;-64
2024/01/06 09:26:09;;;;;;;4.10;2.25;;;17.20;58.20;;;;;;5115845;28;20188;-63
2024/01/06 09:28:34;;;;;;;2.70;2.50;;;17.20;58.40;;;;;;5096299;28;20181;-63
2024/01/06 09:31:00;;;;;;;3.28;2.08;;;17.20;58.20;;;;;;5115433;28;20217;-64
2024/01/06 09:33:25;;;;;;;2.75;2.20;;;17.20;58.20;;;;;;5115207;28;20173;-63
2024/01/06 09:35:51;;;;;;;4.22;2.25;;;17.10;58.30;;;;;;5114676;28;20173;-65
2024/01/06 09:38:17;;;;;;;5.43;2.65;;;17.20;58.20;;;;;;5096924;28;20212;-65
2024/01/06 09:40:44;;;;;;;3.40;2.28;;;17.20;58.10;;;;;;5115510;28;20185;-65
2024/01/06 09:43:12;;;;;;;2.58;2.20;;;17.20;58.10;;;;;;5113357;28;20188;-64
2024/01/06 09:45:39;;;;;;;2.70;2.20;;;17.20;58.10;;;;;;5114956;28;20177;-64
2024/01/06 09:48:12;;;;;;;2.53;2.00;;;17.20;58.20;;;;;;5115239;28;20185;-64
2024/01/06 09:50:42;;;;;;;3.80;1.98;;;17.20;58.20;;;;;;5096970;28;20205;-64
2024/01/06 09:53:11;;;;;;;2.35;2.05;;;17.20;58.20;;;;;;5097545;28;20260;-66
2024/01/06 09:55:37;;;;;;;3.03;1.83;;;17.20;58.20;;;;;;5113893;28;20711;-66
2024/01/06 09:58:02;;;;;;;2.20;1.77;;;17.20;58.20;;;;;;5114701;28;20211;-65
2024/01/06 10:00:28;;;;;;;2.42;2.00;;;17.20;58.30;;;;;;5114642;28;20169;-65
2024/01/06 10:02:54;;;;;;;4.57;2.10;;;17.10;58.40;;;;;;5096089;28;20176;-65
2024/01/06 10:05:20;;;;;;;2.70;2.03;;;17.10;58.50;;;;;;5114429;28;20184;-66
2024/01/06 10:07:46;;;;;;;2.67;2.05;;;17.10;58.50;;;;;;5114931;28;20176;-66
2024/01/06 10:10:12;;;;;;;2.45;2.05;;;17.00;58.60;;;;;;5114107;28;20307;-65
2024/01/06 10:12:39;;;;;;;2.50;2.22;;;17.00;58.50;;;;;;5114448;28;20181;-66
2024/01/06 10:15:06;;;;;;;2.35;2.05;;;17.00;58.60;;;;;;5114911;28;20547;-66
2024/01/06 10:17:32;;;;;;;2.65;1.55;;;17.00;58.80;;;;;;5113658;28;20176;-67
2024/01/06 10:19:57;;;;;;;3.35;2.15;;;16.90;59.10;;;;;;5114766;28;20181;-64
2024/01/06 10:22:23;;;;;;;3.95;2.05;;;16.90;58.80;;;;;;5114429;28;20210;-63
2024/01/06 10:24:49;;;;;;;2.70;2.30;;;16.80;58.80;;;;;;5113996;28;20264;-63
2024/01/06 10:27:14;;;;;;;2.53;2.05;;;16.80;58.80;;;;;;5114276;28;20256;-64
2024/01/06 10:29:40;;;;;;;3.53;2.63;;;16.70;58.70;;;;;;5079055;28;20205;-64
2024/01/06 10:32:06;;;;;;;2.65;2.20;;;16.70;58.70;;;;;;5113549;28;20247;-64
2024/01/06 10:34:32;;;;;;;3.40;2.85;;;16.70;58.70;;;;;;5114041;28;20268;-65
2024/01/06 10:36:58;;;;;;;2.85;2.53;;;16.70;58.20;;;;;;5114454;28;20173;-64
2024/01/06 10:39:23;;;;;;;3.20;2.90;;;16.70;58.20;;;;;;5095293;28;20681;-64
2024/01/06 10:41:49;;;;;;;3.15;2.80;;;16.70;58.30;;;;;;5114135;28;20619;-63
2024/01/06 10:44:14;;;;;;;3.67;2.38;;;16.70;58.40;;;;;;5113869;28;20173;-63
2024/01/06 10:46:40;;;;;;;4.25;2.35;;;16.70;58.50;;;;;;5113443;28;20542;-63
2024/01/06 10:49:10;;;;;;;2.58;1.95;;;16.60;58.60;;;;;;5096052;28;20690;-63
2024/01/06 10:51:37;;;;;;;2.30;2.05;;;16.60;58.60;;;;;;5112859;28;20181;-64
2024/01/06 10:54:02;;;;;;;2.17;1.98;;;16.70;58.90;;;;;;5113674;28;20201;-64
2024/01/06 10:56:37;;;;;;;1.98;1.80;;;16.60;58.80;;;;;;5113441;28;20245;-64
2024/01/06 10:59:03;;;;;;;2.22;2.00;;;16.70;58.90;;;;;;5113241;28;20176;-64
2024/01/06 11:01:29;;;;;;;2.30;1.90;;;16.70;59.00;;;;;;5113419;28;20219;-64
2024/01/06 11:03:54;;;;;;;2.47;1.92;;;16.70;59.00;;;;;;5113744;28;20701;-64
2024/01/06 11:06:20;;;;;;;3.30;1.77;;;16.70;59.10;;;;;;5094551;28;20204;-63
2024/01/06 11:08:56;;;;;;;1.80;1.70;;;16.70;59.10;;;;;;5095511;28;20230;-64
2024/01/06 11:11:23;;;;;;;3.45;2.08;;;16.70;59.20;;;;;;5096288;28;20631;-63
2024/01/06 11:13:49;;;;;;;2.08;1.88;;;16.60;59.20;;;;;;5094749;28;20220;-63
2024/01/06 11:16:37;;;;;;;2.53;1.77;;;16.60;59.20;;;;;;5113419;28;20257;-64
2024/01/06 11:19:02;;;;;;;2.30;1.67;;;16.60;59.30;;;;;;5113414;28;20173;-65
2024/01/06 11:21:33;;;;;;;3.05;1.70;;;16.60;59.40;;;;;;5112481;28;20180;-64
2024/01/06 11:24:16;;;;;;;2.67;2.03;;;16.60;59.60;;;;;;5095910;28;20185;-63
2024/01/06 11:26:45;;;;;;;1.65;1.55;;;16.60;59.60;;;;;;5112936;28;20172;-64
2024/01/06 11:29:10;;;;;;;1.60;1.50;;;16.60;59.60;;;;;;5113174;28;20692;-63
2024/01/06 11:31:37;;;;;;;1.83;1.70;;;16.60;59.60;;;;;;5112827;28;20203;-65
2024/01/06 11:34:13;;;;;;;1.75;1.65;;;16.60;59.60;;;;;;5112576;28;20169;-66
2024/01/06 11:36:39;;;;;;;2.35;1.70;;;16.60;59.60;;;;;;5113091;28;20645;-66
2024/01/06 11:39:05;;;;;;;1.98;1.85;;;16.60;59.60;;;;;;5113040;28;20268;-66
2024/01/06 11:41:52;;;;;;;2.70;2.50;;;16.60;59.60;;;;;;5111885;28;20200;-66
2024/01/06 11:44:21;;;;;;;3.13;2.80;;;16.50;59.40;;;;;;5094430;28;20644;-65
2024/01/06 11:46:51;;;;;;;2.83;2.20;;;16.40;59.30;;;;;;5112920;28;20169;-65
2024/01/06 11:49:17;;;;;;;6.65;2.90;;;16.40;59.60;;;;;;5093764;28;20201;-64
2024/01/06 11:51:43;;;;;;;3.00;2.70;;;16.40;59.50;;;;;;5077772;28;20579;-64
2024/01/06 11:54:09;;;;;;;5.95;2.63;;;16.40;59.20;;;;;;5112720;28;20269;-66
2024/01/06 11:56:35;;;;;;;2.40;2.20;;;16.40;59.50;;;;;;5093327;28;20590;-66
2024/01/06 11:59:00;;;;;;;2.50;2.30;;;16.50;59.50;;;;;;5112700;28;20169;-65
2024/01/06 12:01:26;;;;;;;2.40;2.17;;;16.60;59.40;;;;;;5112536;28;20287;-62
2024/01/06 12:03:55;;;;;;;3.80;2.20;;;16.80;59.30;;;;;;5111974;28;20180;-63
2024/01/06 12:06:23;;;;;;;2.35;1.90;;;17.00;59.10;;;;;;5111721;28;20177;-62
2024/01/06 12:08:49;;;;;;;2.75;1.80;;;17.20;58.80;;;;;;5112741;28;20181;-66
2024/01/06 12:11:18;;;;;;;2.85;2.00;;;17.40;58.60;;;;;;5111756;28;20193;-65
2024/01/06 12:13:44;;;;;;;2.42;1.90;;;17.50;58.40;;;;;;5094831;28;20173;-68
2024/01/06 12:16:09;;;;;;;4.70;1.88;;;17.70;58.20;;;;;;5112069;28;20180;-63
2024/01/06 12:18:35;;;;;;;2.20;1.88;;;17.70;58.20;;;;;;5112207;28;20287;-63
2024/01/06 12:21:00;;;;;;;6.28;2.05;;;17.80;58.10;;;;;;5094546;28;20221;-63
2024/01/06 12:23:29;;;;;;;3.55;1.60;;;17.80;58.20;;;;;;5093419;28;20219;-62
2024/01/06 12:25:55;;;;;;;2.05;1.85;;;17.80;58.10;;;;;;5112468;28;20650;-63
2024/01/06 12:28:21;;;;;;;2.25;2.00;;;17.90;58.00;;;;;;5112072;28;20185;-63
2024/01/06 12:30:46;;;;;;;3.20;1.70;;;17.90;58.00;;;;;;5111577;28;20682;-62
2024/01/06 12:33:12;;;;;;;2.30;1.83;;;18.00;58.00;;;;;;5112630;28;20671;-63
2024/01/06 12:35:37;;;;;;;2.75;1.70;;;18.00;58.00;;;;;;5111989;28;20184;-65
2024/01/06 12:38:06;;;;;;;2.45;1.80;;;18.40;58.20;;;;;;5093436;28;20173;-62
2024/01/06 12:40:31;;;;;;;2.60;1.75;;;18.10;58.00;;;;;;5112093;28;20184;-65
2024/01/06 12:42:57;;;;;;;1.83;1.70;;;18.10;58.00;;;;;;5112311;28;20200;-64